createdAt,value
2019-03-25T00:00:30.772Z,82.60
2019-03-25T00:03:01.435Z,86.43
2019-03-25T00:05:32.698Z,83.87
2019-03-25T00:08:03.387Z,86.40
2019-03-25T00:10:34.398Z,81.83
2019-03-25T00:13:05.297Z,87.70
2019-03-25T00:15:36.369Z,83.20
2019-03-25T00:18:08.175Z,90.70
2019-03-25T00:20:38.796Z,83.73
2019-03-25T00:23:09.354Z,86.37
2019-03-25T00:25:40.208Z,84.73
2019-03-25T00:28:10.862Z,86.13
2019-03-25T00:30:41.419Z,78.50
2019-03-25T00:33:12.350Z,86.47
2019-03-25T00:35:43.202Z,82.60
2019-03-25T00:38:13.767Z,84.13
2019-03-25T00:40:44.390Z,83.67
2019-03-25T00:43:14.994Z,83.35
2019-03-25T00:45:45.562Z,83.17
2019-03-25T00:48:16.457Z,80.57
2019-03-25T00:50:47.233Z,81.87
2019-03-25T00:53:17.826Z,89.67
2019-03-25T00:55:48.515Z,79.00
2019-03-25T00:58:19.395Z,80.83
2019-03-25T01:00:50.268Z,86.50
2019-03-25T01:03:20.898Z,82.00
2019-03-25T01:05:51.505Z,82.70
2019-03-25T01:08:22.092Z,90.90
2019-03-25T01:10:52.954Z,80.10
2019-03-25T01:13:23.594Z,84.87
2019-03-25T01:15:54.438Z,79.97
2019-03-25T01:18:25.208Z,73.00
2019-03-25T01:20:57.341Z,82.77
2019-03-25T01:23:28.122Z,92.33
2019-03-25T01:25:58.769Z,81.00
2019-03-25T01:28:29.335Z,76.03
2019-03-25T01:31:01.133Z,83.03
2019-03-25T01:33:31.825Z,87.97
2019-03-25T01:36:02.428Z,76.97
2019-03-25T01:38:33.153Z,82.97
2019-03-25T01:41:03.785Z,86.57
2019-03-25T01:43:34.390Z,83.57
2019-03-25T01:46:05.338Z,84.03
2019-03-25T01:48:36.194Z,83.77
2019-03-25T01:51:07.455Z,82.88
2019-03-25T01:53:38.298Z,77.83
2019-03-25T01:56:09.156Z,80.22
2019-03-25T01:58:39.980Z,76.37
2019-03-25T02:01:10.577Z,78.30
2019-03-25T02:03:41.457Z,76.60
2019-03-25T02:06:12.367Z,88.07
2019-03-25T02:08:43.191Z,84.73
2019-03-25T02:11:13.762Z,82.57
2019-03-25T02:13:44.354Z,80.13
2019-03-25T02:16:15.303Z,88.65
2019-03-25T02:18:46.130Z,82.00
2019-03-25T02:21:16.732Z,82.33
2019-03-25T02:23:47.524Z,78.97
2019-03-25T02:26:18.303Z,83.50
2019-03-25T02:28:48.879Z,78.30
2019-03-25T02:31:19.763Z,88.55
2019-03-25T02:33:50.402Z,79.20
2019-03-25T02:36:21.260Z,82.63
2019-03-25T02:38:51.900Z,83.23
2019-03-25T02:41:22.512Z,80.53
2019-03-25T02:43:53.344Z,81.87
2019-03-25T02:46:23.945Z,81.37
2019-03-25T02:48:54.659Z,82.77
2019-03-25T02:51:25.528Z,91.33
2019-03-25T02:53:56.404Z,81.17
2019-03-25T02:56:27.286Z,88.50
2019-03-25T02:58:57.881Z,84.43
2019-03-25T03:01:28.553Z,88.67
2019-03-25T03:03:59.209Z,84.20
2019-03-25T03:06:29.948Z,91.17
2019-03-25T03:09:01.818Z,83.03
2019-03-25T03:11:33.587Z,85.77
2019-03-25T03:14:04.209Z,86.97
2019-03-25T03:16:34.821Z,93.33
2019-03-25T03:19:05.979Z,81.50
2019-03-25T03:21:36.647Z,87.97
2019-03-25T03:24:07.744Z,90.40
2019-03-25T03:26:38.603Z,81.73
2019-03-25T03:29:09.486Z,89.97
2019-03-25T03:31:40.128Z,93.83
2019-03-25T03:34:11.012Z,87.17
2019-03-25T03:36:41.734Z,91.73
2019-03-25T03:39:12.737Z,88.00
2019-03-25T03:41:43.627Z,92.63
2019-03-25T03:44:14.213Z,90.60
2019-03-25T03:46:44.973Z,85.93
2019-03-25T03:49:15.856Z,84.83
2019-03-25T03:51:46.857Z,83.33
2019-03-25T03:54:18.361Z,84.37
2019-03-25T03:56:51.035Z,81.50
2019-03-25T03:59:21.878Z,81.73
2019-03-25T04:01:52.715Z,75.83
2019-03-25T04:04:23.300Z,77.90
2019-03-25T04:06:53.968Z,80.00
2019-03-25T04:09:24.919Z,89.63
2019-03-25T04:11:55.778Z,83.77
2019-03-25T04:14:26.610Z,79.97
2019-03-25T04:16:58.192Z,87.67
2019-03-25T04:19:28.911Z,83.13
2019-03-25T04:21:59.784Z,78.17
2019-03-25T04:24:30.548Z,79.87
2019-03-25T04:27:02.443Z,73.72
2019-03-25T04:29:33.095Z,80.73
2019-03-25T04:32:06.174Z,68.07
2019-03-25T04:34:36.392Z,79.57
2019-03-25T04:37:08.477Z,73.47
2019-03-25T04:39:39.062Z,78.27
2019-03-25T04:42:10.331Z,71.15
2019-03-25T04:44:41.048Z,75.17
2019-03-25T04:47:11.679Z,76.23
2019-03-25T04:49:42.265Z,74.30
2019-03-25T04:52:13.248Z,70.65
2019-03-25T04:54:44.096Z,82.20
2019-03-25T04:57:15.175Z,83.22
2019-03-25T04:59:45.986Z,73.23
2019-03-25T05:02:16.653Z,84.90
2019-03-25T05:04:47.262Z,81.83
2019-03-25T05:07:18.205Z,75.37
2019-03-25T05:09:49.097Z,81.33
2019-03-25T05:12:20.037Z,85.67
2019-03-25T05:14:50.605Z,70.23
2019-03-25T05:17:21.476Z,79.17
2019-03-25T05:19:52.161Z,79.70
2019-03-25T05:22:23.145Z,77.73
2019-03-25T05:24:53.800Z,80.73
2019-03-25T05:27:24.414Z,79.40
2019-03-25T05:29:55.431Z,73.67
2019-03-25T05:32:26.152Z,86.07
2019-03-25T05:34:56.702Z,85.10
2019-03-25T05:37:27.391Z,81.90
2019-03-25T05:39:58.331Z,83.80
2019-03-25T05:42:29.194Z,77.00
2019-03-25T05:44:59.934Z,86.30
2019-03-25T05:47:30.559Z,80.27
2019-03-25T05:50:02.550Z,76.65
2019-03-25T05:52:33.240Z,83.77
2019-03-25T05:55:03.845Z,86.77
2019-03-25T05:57:34.524Z,80.80
2019-03-25T06:00:06.556Z,96.07
2019-03-25T06:02:37.338Z,96.43
2019-03-25T06:05:08.803Z,94.40
2019-03-25T06:07:39.453Z,93.40
2019-03-25T06:10:11.683Z,90.95
2019-03-25T06:12:42.627Z,95.23
2019-03-25T06:15:15.107Z,80.50
2019-03-25T06:17:45.750Z,91.60
2019-03-25T06:20:17.194Z,88.63
2019-03-25T06:22:47.928Z,77.27
2019-03-25T06:25:18.569Z,75.40
2019-03-25T06:27:49.335Z,70.77
2019-03-25T06:30:20.066Z,75.93
2019-03-25T06:32:50.733Z,70.43
2019-03-25T06:35:21.430Z,67.80
2019-03-25T06:37:52.026Z,57.57
2019-03-25T06:40:22.631Z,59.27
2019-03-25T06:42:53.462Z,52.27
2019-03-25T06:45:24.325Z,53.37
2019-03-25T06:47:54.934Z,53.80
2019-03-25T06:50:25.562Z,53.23
2019-03-25T06:52:56.160Z,48.63
2019-03-25T06:55:26.850Z,44.47
2019-03-25T06:57:57.558Z,40.17
2019-03-25T07:00:30.312Z,37.83
2019-03-25T07:03:01.933Z,32.03
2019-03-25T07:05:32.536Z,28.83
2019-03-25T07:08:03.179Z,34.43
2019-03-25T07:10:35.476Z,30.93
2019-03-25T07:13:06.800Z,29.20
2019-03-25T07:15:37.999Z,23.17
2019-03-25T07:18:08.668Z,31.63
2019-03-25T07:20:39.493Z,34.40
2019-03-25T07:23:10.104Z,29.20
2019-03-25T07:25:40.692Z,29.00
2019-03-25T07:28:11.391Z,29.80
2019-03-25T07:30:42.054Z,28.50
2019-03-25T07:33:12.651Z,31.37
2019-03-25T07:35:43.218Z,25.77
2019-03-25T07:38:14.041Z,25.77
2019-03-25T07:40:44.682Z,29.70
2019-03-25T07:43:15.285Z,24.27
2019-03-25T07:45:45.903Z,26.20
2019-03-25T07:48:16.755Z,28.60
2019-03-25T07:50:47.787Z,26.23
2019-03-25T07:53:18.977Z,26.57
2019-03-25T07:55:49.794Z,97.60
2019-03-25T07:58:20.752Z,25.37
2019-03-25T08:00:51.610Z,25.47
2019-03-25T08:03:22.325Z,23.00
2019-03-25T08:05:53.029Z,25.07
2019-03-25T08:08:23.806Z,29.40
2019-03-25T08:10:54.479Z,22.30
2019-03-25T08:13:25.441Z,25.40
2019-03-25T08:15:56.310Z,21.90
2019-03-25T08:18:26.955Z,24.53
2019-03-25T08:20:57.801Z,23.83
2019-03-25T08:23:28.428Z,25.63
2019-03-25T08:25:59.041Z,57.93
2019-03-25T08:28:29.843Z,22.90
2019-03-25T08:31:00.582Z,28.37
2019-03-25T08:33:31.423Z,24.40
2019-03-25T08:36:03.060Z,26.73
2019-03-25T08:38:33.842Z,20.77
2019-03-25T08:41:04.427Z,21.40
2019-03-25T08:43:35.187Z,23.47
2019-03-25T08:46:06.073Z,23.20
2019-03-25T08:48:36.981Z,19.57
2019-03-25T08:51:07.564Z,21.95
2019-03-25T08:53:38.196Z,25.07
2019-03-25T08:56:09.081Z,18.80
2019-03-25T08:58:39.984Z,19.80
2019-03-25T09:01:11.387Z,21.12
2019-03-25T09:03:42.058Z,18.70
2019-03-25T09:06:12.987Z,66.17
2019-03-25T09:08:43.587Z,18.87
2019-03-25T09:11:14.364Z,17.53
2019-03-25T09:13:46.683Z,16.03
2019-03-25T09:16:17.299Z,15.63
2019-03-25T09:18:48.047Z,18.13
2019-03-25T09:21:19.033Z,19.32
2019-03-25T09:23:51.070Z,16.50
2019-03-25T09:26:22.060Z,24.63
2019-03-25T09:28:52.756Z,17.17
2019-03-25T09:31:23.465Z,14.50
2019-03-25T09:33:54.127Z,13.57
2019-03-25T09:36:25.047Z,17.83
2019-03-25T09:38:55.684Z,14.80
2019-03-25T09:41:26.269Z,22.33
2019-03-25T09:43:57.109Z,10.37
2019-03-25T09:46:27.811Z,10.57
2019-03-25T09:48:58.515Z,15.80
2019-03-25T09:51:29.216Z,14.30
2019-03-25T09:54:00.129Z,13.63
2019-03-25T09:56:31.043Z,55.90
2019-03-25T09:59:02.591Z,10.80
2019-03-25T10:01:33.569Z,11.57
2019-03-25T10:04:04.914Z,11.10
2019-03-25T10:06:35.691Z,18.57
2019-03-25T10:09:10.552Z,13.67
2019-03-25T10:11:41.189Z,10.43
2019-03-25T10:14:11.786Z,13.07
2019-03-25T10:16:42.385Z,11.03
2019-03-25T10:19:13.230Z,10.13
2019-03-25T10:21:43.801Z,10.00
2019-03-25T10:24:16.327Z,12.33
2019-03-25T10:26:47.206Z,10.53
2019-03-25T10:29:17.951Z,12.27
2019-03-25T10:31:48.538Z,9.90
2019-03-25T10:34:19.444Z,13.00
2019-03-25T10:36:50.362Z,11.50
2019-03-25T10:39:21.131Z,7.27
2019-03-25T10:41:51.864Z,9.13
2019-03-25T10:44:22.503Z,8.90
2019-03-25T10:46:53.101Z,10.10
2019-03-25T10:49:23.794Z,9.93
2019-03-25T10:51:54.412Z,16.23
2019-03-25T10:54:25.055Z,8.80
2019-03-25T10:56:56.916Z,8.17
2019-03-25T10:59:27.551Z,6.40
2019-03-25T11:01:58.361Z,6.97
2019-03-25T11:04:29.431Z,13.80
2019-03-25T11:07:00.181Z,9.80
2019-03-25T11:09:30.879Z,9.20
2019-03-25T11:12:01.713Z,7.10
2019-03-25T11:14:32.420Z,6.37
2019-03-25T11:17:03.771Z,7.17
2019-03-25T11:19:35.547Z,9.87
2019-03-25T11:22:06.247Z,8.13
2019-03-25T11:24:36.947Z,8.07
2019-03-25T11:27:07.697Z,7.17
2019-03-25T11:29:38.590Z,4.60
2019-03-25T11:32:09.666Z,5.22
2019-03-25T11:34:40.634Z,5.40
2019-03-25T11:37:11.561Z,5.37
2019-03-25T11:39:42.164Z,7.20
2019-03-25T11:42:12.906Z,6.90
2019-03-25T11:44:43.601Z,55.30
2019-03-25T11:47:14.271Z,8.00
2019-03-25T11:49:44.878Z,4.03
2019-03-25T11:52:17.147Z,4.53
2019-03-25T11:54:47.820Z,4.00
2019-03-25T11:57:19.646Z,6.65
2019-03-25T11:59:51.233Z,4.50
2019-03-25T12:02:22.217Z,5.43
2019-03-25T12:04:52.824Z,5.03
2019-03-25T12:07:23.623Z,5.40
2019-03-25T12:09:54.303Z,7.17
2019-03-25T12:12:24.884Z,8.40
2019-03-25T12:14:55.662Z,4.40
2019-03-25T12:17:26.297Z,9.23
2019-03-25T12:19:56.913Z,5.67
2019-03-25T12:22:27.645Z,5.07
2019-03-25T12:24:58.304Z,6.77
2019-03-25T12:27:28.953Z,4.90
2019-03-25T12:29:59.953Z,5.83
2019-03-25T12:32:30.737Z,6.53
2019-03-25T12:35:01.360Z,3.33
2019-03-25T12:37:31.967Z,5.93
2019-03-25T12:40:03.982Z,4.20
2019-03-25T12:42:34.803Z,3.83
2019-03-25T12:45:06.535Z,11.70
2019-03-25T12:47:37.138Z,6.93
2019-03-25T12:50:09.692Z,5.63
2019-03-25T12:52:40.255Z,4.43
2019-03-25T12:55:11.172Z,5.30
2019-03-25T12:57:41.946Z,5.60
2019-03-25T13:00:14.043Z,4.43
2019-03-25T13:02:47.061Z,6.07
2019-03-25T13:05:17.940Z,5.42
2019-03-25T13:07:48.764Z,5.63
2019-03-25T13:10:20.464Z,5.17
2019-03-25T13:12:51.056Z,4.37
2019-03-25T13:15:21.858Z,5.50
2019-03-25T13:17:52.504Z,7.60
2019-03-25T13:20:23.269Z,9.80
2019-03-25T13:22:53.964Z,5.40
2019-03-25T13:25:24.560Z,12.97
2019-03-25T13:27:55.207Z,7.27
2019-03-25T13:30:25.948Z,7.20
2019-03-25T13:32:56.548Z,4.50
2019-03-25T13:35:27.282Z,5.20
2019-03-25T13:37:59.065Z,6.27
2019-03-25T13:40:29.718Z,4.97
2019-03-25T13:43:00.318Z,6.33
2019-03-25T13:45:31.139Z,6.90
2019-03-25T13:48:01.962Z,6.83
2019-03-25T13:50:32.650Z,7.20
2019-03-25T13:53:04.337Z,6.28
2019-03-25T13:55:37.168Z,6.17
2019-03-25T13:58:08.066Z,7.53
2019-03-25T14:00:43.068Z,4.87
2019-03-25T14:03:13.953Z,5.80
2019-03-25T14:05:50.068Z,6.47
2019-03-25T14:08:20.729Z,4.70
2019-03-25T14:10:51.350Z,5.73
2019-03-25T14:13:22.243Z,4.45
2019-03-25T14:15:52.818Z,6.73
2019-03-25T14:18:23.499Z,4.77
2019-03-25T14:20:54.286Z,7.60
2019-03-25T14:23:24.898Z,7.10
2019-03-25T14:25:55.527Z,7.53
2019-03-25T14:28:26.431Z,4.67
2019-03-25T14:30:57.351Z,6.77
2019-03-25T14:33:28.294Z,6.90
2019-03-25T14:35:59.206Z,5.43
2019-03-25T14:38:29.979Z,6.60
2019-03-25T14:41:00.633Z,6.23
2019-03-25T14:43:31.483Z,9.70
2019-03-25T14:46:02.243Z,6.23
2019-03-25T14:48:32.942Z,8.20
2019-03-25T14:51:04.544Z,8.18
2019-03-25T14:53:44.783Z,6.70
2019-03-25T14:56:07.690Z,6.93
2019-03-25T14:58:38.335Z,7.77
2019-03-25T15:01:08.969Z,7.30
2019-03-25T15:03:39.642Z,7.30
2019-03-25T15:06:11.826Z,8.10
2019-03-25T15:08:42.405Z,7.30
2019-03-25T15:11:13.024Z,7.80
2019-03-25T15:13:43.673Z,6.90
2019-03-25T15:16:14.542Z,6.87
2019-03-25T15:18:45.173Z,8.23
2019-03-25T15:21:15.889Z,8.67
2019-03-25T15:23:46.572Z,7.93
2019-03-25T15:26:17.528Z,8.90
2019-03-25T15:28:48.556Z,9.10
2019-03-25T15:31:19.951Z,10.40
2019-03-25T15:33:50.606Z,9.30
2019-03-25T15:36:21.544Z,9.57
2019-03-25T15:38:53.657Z,12.13
2019-03-25T15:41:24.522Z,7.97
2019-03-25T15:43:55.208Z,7.30
2019-03-25T15:46:35.850Z,11.87
2019-03-25T15:49:06.762Z,6.93
2019-03-25T15:51:37.613Z,7.47
2019-03-25T15:54:08.216Z,6.00
2019-03-25T15:56:47.874Z,7.23
2019-03-25T15:59:18.826Z,9.03
2019-03-25T16:01:49.806Z,5.80
2019-03-25T16:04:20.652Z,6.10
2019-03-25T16:06:51.359Z,4.90
2019-03-25T16:09:21.975Z,6.20
2019-03-25T16:11:52.620Z,6.20
2019-03-25T16:14:23.500Z,6.10
2019-03-25T16:16:55.263Z,5.50
2019-03-25T16:19:25.956Z,6.60
2019-03-25T16:21:56.745Z,5.60
2019-03-25T16:24:27.403Z,6.10
2019-03-25T16:26:58.031Z,6.60
2019-03-25T16:29:28.702Z,7.17
2019-03-25T16:31:59.503Z,6.10
2019-03-25T16:34:30.337Z,6.93
2019-03-25T16:37:00.943Z,6.40
2019-03-25T16:39:32.801Z,5.53
2019-03-25T16:42:04.973Z,7.03
2019-03-25T16:44:37.231Z,6.10
2019-03-25T16:47:08.256Z,6.40
2019-03-25T16:49:40.701Z,6.90
2019-03-25T16:52:15.012Z,5.70
2019-03-25T16:54:45.782Z,4.30
2019-03-25T16:57:16.515Z,5.20
2019-03-25T16:59:47.110Z,4.37
2019-03-25T17:02:17.986Z,4.80
2019-03-25T17:04:48.860Z,2.90
2019-03-25T17:07:19.453Z,3.03
2019-03-25T17:09:50.155Z,5.17
2019-03-25T17:12:21.028Z,3.80
2019-03-25T17:14:51.925Z,3.50
2019-03-25T17:17:33.403Z,3.60
2019-03-25T17:20:06.885Z,3.70
2019-03-25T17:22:42.288Z,3.77
2019-03-25T17:25:13.099Z,3.67
2019-03-25T17:27:43.928Z,4.53
2019-03-25T17:30:20.002Z,7.83
2019-03-25T17:32:57.107Z,6.47
2019-03-25T17:35:28.904Z,4.50
2019-03-25T17:37:59.527Z,6.00
2019-03-25T17:40:41.729Z,6.50
2019-03-25T17:43:14.332Z,7.10
2019-03-25T17:45:45.992Z,6.87
2019-03-25T17:48:16.634Z,7.70
2019-03-25T17:50:47.271Z,6.30
2019-03-25T17:53:18.327Z,6.43
2019-03-25T17:55:49.035Z,8.60
2019-03-25T17:58:19.698Z,5.33
2019-03-25T18:01:32.539Z,5.93
2019-03-25T18:04:02.221Z,5.63
2019-03-25T18:06:33.141Z,6.67
2019-03-25T18:09:09.668Z,4.40
2019-03-25T18:11:40.414Z,6.30
2019-03-25T18:14:11.416Z,6.17
2019-03-25T18:16:42.156Z,8.63
2019-03-25T18:19:12.884Z,6.20
2019-03-25T18:21:43.585Z,6.47
2019-03-25T18:24:14.470Z,6.00
2019-03-25T18:26:45.243Z,5.47
2019-03-25T18:29:17.185Z,4.60
2019-03-25T18:31:48.120Z,4.23
2019-03-25T18:34:18.778Z,5.60
2019-03-25T18:36:49.500Z,4.50
2019-03-25T18:39:20.439Z,5.80
2019-03-25T18:41:51.379Z,5.67
2019-03-25T18:44:22.389Z,5.90
2019-03-25T18:46:53.365Z,6.67
2019-03-25T18:49:24.353Z,5.53
2019-03-25T18:51:55.010Z,7.30
2019-03-25T18:54:25.736Z,6.20
2019-03-25T18:56:56.609Z,5.03
2019-03-25T18:59:36.210Z,5.20
2019-03-25T19:02:07.065Z,5.20
2019-03-25T19:04:37.873Z,5.60
2019-03-25T19:07:08.659Z,5.67
2019-03-25T19:09:39.596Z,9.40
2019-03-25T19:12:10.614Z,5.73
2019-03-25T19:14:41.565Z,5.43
2019-03-25T19:17:13.393Z,5.85
2019-03-25T19:19:44.432Z,6.40
2019-03-25T19:22:16.585Z,6.40
2019-03-25T19:24:48.559Z,14.67
2019-03-25T19:27:19.755Z,7.43
2019-03-25T19:29:50.778Z,9.97
2019-03-25T19:32:21.811Z,11.87
2019-03-25T19:34:55.391Z,12.13
2019-03-25T19:37:26.117Z,8.70
2019-03-25T19:39:57.043Z,6.43
2019-03-25T19:42:28.300Z,4.40
2019-03-25T19:45:04.539Z,9.80
2019-03-25T19:47:35.560Z,8.83
2019-03-25T19:50:07.362Z,4.50
2019-03-25T19:52:38.118Z,5.23
2019-03-25T19:55:10.619Z,4.13
2019-03-25T19:57:41.293Z,4.07
2019-03-25T20:00:12.921Z,5.83
2019-03-25T20:02:46.104Z,7.97
2019-03-25T20:05:19.578Z,8.75
2019-03-25T20:07:53.540Z,9.07
2019-03-25T20:10:33.726Z,11.07
2019-03-25T20:13:06.710Z,10.53
2019-03-25T20:15:46.122Z,11.63
2019-03-25T20:18:10.065Z,10.40
2019-03-25T20:20:40.785Z,10.00
2019-03-25T20:23:16.527Z,7.60
2019-03-25T20:25:47.257Z,7.30
2019-03-25T20:28:17.916Z,7.70
2019-03-25T20:30:49.877Z,5.27
2019-03-25T20:33:20.979Z,6.47
2019-03-25T20:35:51.900Z,8.43
2019-03-25T20:38:22.926Z,5.93
2019-03-25T20:40:53.948Z,5.17
2019-03-25T20:43:24.767Z,5.10
2019-03-25T20:45:57.375Z,5.77
2019-03-25T20:48:28.192Z,6.27
2019-03-25T20:50:59.044Z,4.20
2019-03-25T20:53:29.891Z,4.47
2019-03-25T20:56:00.917Z,5.37
2019-03-25T20:58:31.897Z,6.07
2019-03-25T21:01:02.918Z,43.53
2019-03-25T21:03:33.927Z,11.23
2019-03-25T21:06:05.896Z,6.20
2019-03-25T21:08:36.996Z,5.07
2019-03-25T21:11:07.988Z,6.33
2019-03-25T21:13:39.008Z,4.53
2019-03-25T21:16:10.174Z,6.60
2019-03-25T21:18:41.017Z,6.90
2019-03-25T21:21:13.205Z,5.90
2019-03-25T21:23:44.381Z,8.33
2019-03-25T21:26:15.694Z,6.83
2019-03-25T21:28:46.524Z,7.03
2019-03-25T21:31:17.455Z,12.50
2019-03-25T21:33:48.366Z,9.30
2019-03-25T21:36:19.267Z,9.83
2019-03-25T21:38:51.089Z,9.90
2019-03-25T21:41:22.143Z,7.73
2019-03-25T21:43:53.304Z,8.93
2019-03-25T21:46:24.455Z,10.30
2019-03-25T21:48:55.353Z,31.50
2019-03-25T21:51:26.101Z,10.80
2019-03-25T21:53:58.118Z,11.80
2019-03-25T21:56:29.175Z,10.60
2019-03-25T21:59:00.556Z,10.93
2019-03-25T22:01:31.696Z,10.30
2019-03-25T22:04:04.368Z,12.70
2019-03-25T22:06:35.303Z,10.77
2019-03-25T22:09:07.676Z,9.93
2019-03-25T22:11:38.274Z,10.30
2019-03-25T22:14:09.487Z,9.73
2019-03-25T22:16:41.308Z,9.70
2019-03-25T22:19:12.341Z,11.63
2019-03-25T22:21:43.225Z,9.60
2019-03-25T22:24:14.829Z,10.98
2019-03-25T22:26:45.559Z,11.70
2019-03-25T22:29:16.259Z,9.23
2019-03-25T22:31:47.589Z,9.57
2019-03-25T22:34:18.554Z,10.43
2019-03-25T22:36:49.258Z,14.90
2019-03-25T22:39:21.554Z,10.03
2019-03-25T22:41:52.327Z,10.60
2019-03-25T22:44:23.717Z,9.37
2019-03-25T22:46:54.411Z,10.70
2019-03-25T22:49:25.310Z,8.90
2019-03-25T22:51:57.939Z,10.60
2019-03-25T22:54:30.707Z,10.20
2019-03-25T22:57:01.697Z,10.13
2019-03-25T22:59:34.400Z,8.67
2019-03-25T23:02:06.259Z,10.97
2019-03-25T23:04:36.942Z,9.40
2019-03-25T23:07:07.551Z,8.73
2019-03-25T23:09:38.427Z,10.40
2019-03-25T23:12:09.759Z,8.17
2019-03-25T23:14:40.377Z,8.30
2019-03-25T23:17:11.305Z,8.70
2019-03-25T23:19:41.969Z,9.20
2019-03-25T23:22:12.879Z,9.20
2019-03-25T23:24:44.671Z,8.93
2019-03-25T23:27:15.657Z,11.38
2019-03-25T23:29:46.537Z,9.83
2019-03-25T23:32:17.444Z,12.50
2019-03-25T23:34:48.045Z,12.40
2019-03-25T23:37:18.750Z,12.23
2019-03-25T23:39:49.555Z,10.10
2019-03-25T23:42:20.521Z,10.65
2019-03-25T23:44:51.140Z,10.33
2019-03-25T23:47:22.055Z,9.77
2019-03-25T23:49:53.935Z,8.37
2019-03-25T23:52:24.834Z,11.85
2019-03-25T23:54:55.533Z,8.40
2019-03-25T23:57:26.395Z,12.93
2019-03-25T23:59:57.015Z,12.53
